Time;durP1;ratioP1;P1;durP2;ratioP2;P2;SDS_P1;SDS_P2;PMS_P1;PMS_P2;Temp;Humidity;BMP_temperature;BMP_pressure;BME280_temperature;BME280_humidity;BME280_pressure;Samples;Min_cycle;Max_cycle;Signal;HPM_P1;HPM_P2
2022/12/07 00:00:53;;;;;;;7.53;4.50;;;5.30;99.90;;;;;;4943677;29;20039;-81
2022/12/07 00:03:19;;;;;;;6.40;4.28;;;5.30;99.90;;;;;;4943755;29;20027;-81
2022/12/07 00:05:44;;;;;;;7.63;4.30;;;5.20;99.90;;;;;;4944277;29;20034;-80
2022/12/07 00:08:10;;;;;;;8.25;4.70;;;5.20;99.90;;;;;;4960806;29;20083;-81
2022/12/07 00:10:36;;;;;;;7.07;4.30;;;5.20;99.90;;;;;;4960194;28;20530;-81
2022/12/07 00:13:01;;;;;;;7.88;4.60;;;5.20;99.90;;;;;;4935079;29;20037;-79
2022/12/07 00:15:27;;;;;;;7.30;4.60;;;5.10;99.90;;;;;;4957965;29;20032;-80
2022/12/07 00:17:53;;;;;;;7.65;4.32;;;5.10;99.90;;;;;;4961311;29;20500;-80
2022/12/07 00:20:18;;;;;;;6.78;4.20;;;5.10;99.90;;;;;;4944051;29;20027;-81
2022/12/07 00:22:44;;;;;;;6.90;4.15;;;5.10;99.90;;;;;;4944242;29;20110;-80
2022/12/07 00:25:10;;;;;;;6.50;3.97;;;5.00;99.90;;;;;;4960955;29;20038;-81
2022/12/07 00:27:43;;;;;;;5.88;3.83;;;5.00;99.90;;;;;;4943900;29;20034;-81
2022/12/07 00:30:09;;;;;;;7.40;4.35;;;5.00;99.90;;;;;;4948529;29;20122;-80
2022/12/07 00:32:34;;;;;;;7.40;4.20;;;5.00;99.90;;;;;;4940718;29;20048;-80
2022/12/07 00:35:00;;;;;;;8.63;4.55;;;5.00;99.90;;;;;;4941780;29;20032;-80
2022/12/07 00:37:26;;;;;;;6.22;4.07;;;5.00;99.90;;;;;;4941492;29;20047;-80
2022/12/07 00:39:51;;;;;;;6.78;4.10;;;5.00;99.90;;;;;;4943760;29;20031;-80
2022/12/07 00:42:17;;;;;;;8.73;4.65;;;5.00;99.90;;;;;;4943055;29;20043;-80
2022/12/07 00:44:43;;;;;;;6.20;3.65;;;5.00;99.90;;;;;;4960321;29;20035;-80
2022/12/07 00:47:08;;;;;;;6.45;4.18;;;5.00;99.90;;;;;;4963151;28;20034;-80
2022/12/07 00:49:34;;;;;;;7.63;4.30;;;5.00;99.90;;;;;;4943336;29;20497;-80
2022/12/07 00:52:00;;;;;;;6.18;4.22;;;5.00;99.90;;;;;;4943167;29;20042;-79
2022/12/07 00:54:25;;;;;;;6.95;4.38;;;4.90;99.90;;;;;;4960269;29;20039;-80
2022/12/07 00:56:51;;;;;;;6.57;4.25;;;5.00;99.90;;;;;;4943275;29;20031;-80
2022/12/07 00:59:16;;;;;;;7.18;4.28;;;4.90;99.90;;;;;;4960252;29;20042;-80
2022/12/07 01:01:42;;;;;;;7.38;4.30;;;4.90;99.90;;;;;;4959735;29;20027;-81
2022/12/07 01:04:08;;;;;;;5.97;4.05;;;4.90;99.90;;;;;;4942900;29;20030;-80
2022/12/07 01:06:34;;;;;;;7.18;4.38;;;4.90;99.90;;;;;;4960261;29;20508;-80
2022/12/07 01:09:00;;;;;;;6.88;4.30;;;4.80;99.90;;;;;;4942628;29;20054;-81
2022/12/07 01:11:28;;;;;;;7.88;4.28;;;4.80;99.90;;;;;;4959417;29;20031;-80
2022/12/07 01:13:56;;;;;;;6.60;3.95;;;4.80;99.90;;;;;;4960148;29;20037;-80
2022/12/07 01:16:43;;;;;;;6.45;3.90;;;4.80;99.90;;;;;;4942099;29;20035;-81
2022/12/07 01:22:23;;;;;;;7.15;4.05;;;4.70;99.90;;;;;;4927590;29;20050;-80
2022/12/07 01:24:49;;;;;;;7.90;4.78;;;4.70;99.90;;;;;;4943110;29;20058;-80
2022/12/07 01:27:15;;;;;;;6.00;3.95;;;4.70;99.90;;;;;;4959485;29;20037;-81
2022/12/07 01:29:40;;;;;;;8.10;4.35;;;4.70;99.90;;;;;;4959918;29;20066;-80
2022/12/07 01:32:06;;;;;;;8.32;4.57;;;4.70;99.90;;;;;;4942944;29;20098;-81
2022/12/07 01:34:32;;;;;;;7.20;4.10;;;4.70;99.90;;;;;;4948297;29;20036;-80
2022/12/07 01:37:01;;;;;;;7.75;4.43;;;4.70;99.90;;;;;;4958164;29;20027;-81
2022/12/07 01:39:29;;;;;;;7.38;4.28;;;4.60;99.90;;;;;;4941693;29;20053;-81
2022/12/07 01:42:08;;;;;;;6.55;3.78;;;4.60;99.90;;;;;;4942275;29;20026;-81
2022/12/07 01:45:12;;;;;;;5.63;3.97;;;4.60;99.90;;;;;;4959513;28;20023;-80
2022/12/07 01:47:38;;;;;;;;;;;4.50;99.90;;;;;;4968045;28;20027;-80
2022/12/07 01:50:04;;;;;;;6.80;3.67;;;4.50;99.90;;;;;;4942452;29;19911;-80
2022/12/07 01:52:33;;;;;;;6.72;3.70;;;4.50;99.90;;;;;;4942232;29;20094;-80
2022/12/07 01:55:05;;;;;;;6.40;3.97;;;4.40;99.90;;;;;;4959309;29;20392;-80
2022/12/07 01:57:33;;;;;;;7.68;4.18;;;4.20;99.90;;;;;;4959458;29;20043;-80
2022/12/07 01:59:59;;;;;;;6.00;3.63;;;4.00;99.90;;;;;;4941801;29;20035;-79
2022/12/07 02:02:34;;;;;;;6.72;4.13;;;3.80;99.90;;;;;;4958788;29;20030;-81
2022/12/07 02:05:02;;;;;;;7.32;4.20;;;3.80;99.90;;;;;;4942169;29;20055;-81
2022/12/07 02:07:29;;;;;;;7.75;4.22;;;3.70;99.90;;;;;;4941974;29;20054;-81
2022/12/07 02:09:55;;;;;;;7.13;3.53;;;3.60;99.90;;;;;;4959351;28;20059;-81
2022/12/07 02:12:22;;;;;;;7.32;4.13;;;3.60;99.90;;;;;;4949980;29;20035;-79
2022/12/07 02:14:49;;;;;;;7.18;4.70;;;3.50;99.90;;;;;;4957977;29;20030;-81
2022/12/07 02:17:25;;;;;;;6.97;3.70;;;3.60;99.90;;;;;;4941558;29;20035;-79
2022/12/07 02:20:12;;;;;;;6.45;4.10;;;3.60;99.90;;;;;;4930473;29;20095;-79
2022/12/07 02:23:04;;;;;;;6.72;3.75;;;3.50;99.90;;;;;;4941823;29;20362;-80
2022/12/07 02:25:48;;;;;;;8.52;4.43;;;3.40;99.90;;;;;;4932399;29;20027;-80
2022/12/07 02:28:22;;;;;;;5.43;3.53;;;3.40;99.90;;;;;;4958193;29;20031;-80
2022/12/07 02:31:06;;;;;;;8.63;4.32;;;3.40;99.90;;;;;;4941757;29;20037;-81
2022/12/07 02:34:14;;;;;;;;;;;;;;;;;;;;;
2022/12/07 02:41:22;;;;;;;5.25;3.42;;;3.40;99.90;;;;;;4944235;29;20105;-82
2022/12/07 02:44:13;;;;;;;6.90;3.33;;;3.40;99.90;;;;;;4925748;29;20500;-82
2022/12/07 02:47:24;;;;;;;5.30;3.20;;;3.40;99.90;;;;;;4947223;29;20464;-81
2022/12/07 02:49:57;;;;;;;7.55;3.55;;;3.50;99.90;;;;;;4937642;29;20567;-81
2022/12/07 02:52:57;;;;;;;7.18;4.00;;;3.50;99.90;;;;;;4941735;29;20027;-81
2022/12/07 02:55:29;;;;;;;6.53;3.95;;;3.50;99.90;;;;;;4959463;28;20059;-80
2022/12/07 02:58:25;;;;;;;5.70;3.72;;;3.60;99.90;;;;;;4945647;29;20032;-80
2022/12/07 03:01:31;;;;;;;7.55;4.55;;;3.50;99.90;;;;;;4952832;29;20032;-80
2022/12/07 03:04:31;;;;;;;6.80;4.28;;;3.60;99.90;;;;;;4918338;29;20046;-80
2022/12/07 03:07:04;;;;;;;6.47;4.22;;;3.50;99.90;;;;;;4952892;29;20035;-80
2022/12/07 03:09:40;;;;;;;5.82;3.85;;;3.40;99.90;;;;;;4945159;29;20145;-80
2022/12/07 03:12:21;;;;;;;6.82;4.22;;;3.30;99.90;;;;;;4944905;29;20031;-80
2022/12/07 03:15:02;;;;;;;4.90;3.28;;;3.40;99.90;;;;;;4958771;29;20042;-80
2022/12/07 03:17:33;;;;;;;7.47;4.28;;;3.50;99.90;;;;;;4945004;29;20054;-80
2022/12/07 03:20:04;;;;;;;8.40;4.00;;;3.40;99.90;;;;;;4962373;29;20396;-80
2022/12/07 03:22:32;;;;;;;6.72;4.05;;;3.30;99.90;;;;;;4944908;29;20130;-80
2022/12/07 03:25:02;;;;;;;6.82;4.25;;;3.40;99.90;;;;;;4961820;29;20031;-79
2022/12/07 03:27:38;;;;;;;7.13;3.78;;;3.40;99.90;;;;;;4961952;29;20560;-80
2022/12/07 03:30:12;;;;;;;4.80;3.50;;;3.50;99.90;;;;;;4944293;29;20051;-79
2022/12/07 03:33:04;;;;;;;6.10;3.58;;;3.40;99.90;;;;;;4961982;29;20034;-80
2022/12/07 03:35:40;;;;;;;7.15;4.05;;;3.40;99.90;;;;;;4944894;29;20059;-81
2022/12/07 03:38:19;;;;;;;7.47;4.25;;;3.40;99.90;;;;;;4943837;29;20035;-81
2022/12/07 03:40:51;;;;;;;5.75;4.07;;;3.40;99.90;;;;;;4933452;29;20042;-80
2022/12/07 03:43:19;;;;;;;5.75;3.67;;;3.40;99.90;;;;;;4944521;29;20055;-81
2022/12/07 03:56:03;;;;;;;6.10;3.60;;;3.40;99.90;;;;;;4954773;29;20071;-81
2022/12/07 04:15:53;;;;;;;5.10;2.80;;;3.40;99.90;;;;;;4901475;29;20040;-81
2022/12/07 04:26:52;;;;;;;5.43;3.20;;;3.20;99.90;;;;;;5621165;23;20059;-79
2022/12/07 04:29:23;;;;;;;6.35;3.47;;;3.20;99.90;;;;;;4943457;29;20094;-79
2022/12/07 04:31:50;;;;;;;6.75;3.95;;;3.10;99.90;;;;;;4960904;29;20035;-78
2022/12/07 04:34:16;;;;;;;5.90;3.50;;;3.00;99.90;;;;;;4960757;29;20481;-78
2022/12/07 04:36:42;;;;;;;5.75;3.28;;;3.00;99.90;;;;;;4960620;29;20023;-80
2022/12/07 04:39:18;;;;;;;6.45;3.60;;;3.00;99.90;;;;;;4961034;29;20034;-80
2022/12/07 04:41:47;;;;;;;6.43;3.72;;;3.00;99.90;;;;;;4943152;29;20066;-81
2022/12/07 04:44:14;;;;;;;6.60;3.83;;;3.00;99.90;;;;;;4943392;29;20027;-81
2022/12/07 04:46:41;;;;;;;5.82;3.70;;;3.00;99.90;;;;;;4943094;29;20027;-81
2022/12/07 04:49:06;;;;;;;5.97;3.55;;;3.00;99.90;;;;;;4960688;29;20059;-82
2022/12/07 04:51:38;;;;;;;7.15;4.15;;;3.00;99.90;;;;;;4943557;29;20082;-79
2022/12/07 04:54:04;;;;;;;5.57;3.78;;;2.90;99.90;;;;;;4942288;29;20087;-78
2022/12/07 04:56:30;;;;;;;5.72;3.47;;;3.00;99.90;;;;;;4948247;29;20488;-78
2022/12/07 04:58:56;;;;;;;6.18;3.28;;;2.90;99.90;;;;;;4943177;29;20039;-78
2022/12/07 05:01:22;;;;;;;6.75;4.15;;;2.90;99.90;;;;;;4959842;29;20464;-78
2022/12/07 05:03:49;;;;;;;6.38;3.78;;;2.90;99.90;;;;;;4960539;29;20035;-78
2022/12/07 05:06:15;;;;;;;6.60;4.03;;;3.00;99.90;;;;;;4942944;29;20564;-79
2022/12/07 05:08:41;;;;;;;6.50;4.30;;;3.00;99.90;;;;;;4942955;29;20031;-79
2022/12/07 05:11:07;;;;;;;6.50;4.15;;;3.00;99.90;;;;;;4942567;29;20082;-79
2022/12/07 05:13:33;;;;;;;5.75;3.65;;;2.90;99.90;;;;;;4941285;29;20036;-80
2022/12/07 05:15:59;;;;;;;5.88;3.88;;;2.90;99.90;;;;;;4959872;29;20453;-79
2022/12/07 05:18:25;;;;;;;6.47;3.50;;;2.90;99.90;;;;;;4959100;28;20066;-79
2022/12/07 05:20:51;;;;;;;6.35;4.18;;;3.00;99.90;;;;;;4959693;29;20031;-79
2022/12/07 05:23:32;;;;;;;6.43;3.92;;;2.90;99.90;;;;;;4942956;29;20023;-80
2022/12/07 05:26:26;;;;;;;7.80;4.05;;;2.90;99.90;;;;;;4942893;29;20432;-80
2022/12/07 05:28:55;;;;;;;;;;;2.90;99.90;;;;;;4953824;29;20071;-81
2022/12/07 05:31:24;;;;;;;5.07;3.13;;;2.90;99.90;;;;;;4943123;29;19914;-80
2022/12/07 05:33:52;;;;;;;5.40;3.38;;;2.80;99.90;;;;;;4942998;29;20515;-80
2022/12/07 05:36:18;;;;;;;6.45;3.70;;;2.70;99.90;;;;;;4959956;29;20027;-80
2022/12/07 05:38:44;;;;;;;7.82;4.10;;;2.60;99.90;;;;;;4960029;29;20074;-80
2022/12/07 05:42:11;;;;;;;5.30;3.30;;;2.50;99.90;;;;;;4933479;29;20031;-80
2022/12/07 05:44:03;;;;;;;5.40;2.92;;;2.40;99.90;;;;;;4958291;29;20031;-81
2022/12/07 05:46:28;;;;;;;5.30;3.30;;;2.60;99.90;;;;;;4937960;29;20476;-81
2022/12/07 05:49:03;;;;;;;6.32;3.72;;;2.60;99.90;;;;;;4959673;29;20027;-81
2022/12/07 05:51:32;;;;;;;5.45;3.35;;;2.70;99.90;;;;;;4942358;29;20034;-80
2022/12/07 05:54:02;;;;;;;6.00;3.67;;;2.70;99.90;;;;;;4941606;29;20031;-81
2022/12/07 05:56:37;;;;;;;4.57;3.08;;;2.70;99.90;;;;;;4940819;29;20046;-81
2022/12/07 06:01:49;;;;;;;7.45;3.60;;;2.60;99.90;;;;;;4957875;29;20138;-80
2022/12/07 06:04:15;;;;;;;5.20;2.65;;;2.60;99.90;;;;;;4941406;29;20031;-81
2022/12/07 06:06:40;;;;;;;5.35;3.30;;;2.50;99.90;;;;;;4959140;29;20058;-78
2022/12/07 06:09:06;;;;;;;5.30;3.22;;;2.30;99.90;;;;;;4959036;29;20031;-77
2022/12/07 06:14:16;;;;;;;4.68;3.00;;;2.40;99.90;;;;;;4958744;29;20046;-76
2022/12/07 06:16:42;;;;;;;5.10;3.22;;;2.40;99.90;;;;;;4958716;29;20027;-80
2022/12/07 06:19:08;;;;;;;5.97;3.10;;;2.40;99.90;;;;;;4941932;29;20035;-79
2022/12/07 06:21:33;;;;;;;5.65;3.38;;;2.30;99.90;;;;;;4941118;29;20035;-78
2022/12/07 06:23:59;;;;;;;4.80;2.88;;;2.30;99.90;;;;;;4941745;29;20035;-81
2022/12/07 06:30:08;;;;;;;4.72;2.47;;;2.50;99.90;;;;;;4845091;29;20071;-83
2022/12/07 06:32:47;;;;;;;3.97;2.58;;;2.50;99.90;;;;;;4884104;29;20068;-82
2022/12/07 06:35:36;;;;;;;3.47;2.05;;;2.50;99.90;;;;;;4942190;29;20035;-82
2022/12/07 06:38:18;;;;;;;4.20;2.28;;;2.50;99.90;;;;;;4955500;29;20393;-82
2022/12/07 06:41:13;;;;;;;4.25;2.60;;;2.60;99.90;;;;;;4941158;29;20038;-80
2022/12/07 06:43:42;;;;;;;3.70;2.33;;;2.60;99.90;;;;;;4939422;29;20042;-82
2022/12/07 06:46:10;;;;;;;3.28;2.22;;;2.60;99.90;;;;;;4955492;29;20551;-82
2022/12/07 06:48:36;;;;;;;3.75;2.55;;;2.60;99.90;;;;;;4958483;29;20031;-82
2022/12/07 06:51:08;;;;;;;3.63;2.30;;;2.70;99.90;;;;;;4941686;29;20449;-81
2022/12/07 06:53:38;;;;;;;3.85;2.10;;;2.60;99.90;;;;;;4941930;29;20027;-81
2022/12/07 06:56:04;;;;;;;2.92;1.98;;;2.70;99.90;;;;;;4941477;29;20460;-82
2022/12/07 06:58:30;;;;;;;3.58;2.30;;;2.70;99.90;;;;;;4947416;29;20036;-82
2022/12/07 07:00:56;;;;;;;3.40;2.25;;;2.70;99.90;;;;;;4940443;29;20038;-83
2022/12/07 07:03:25;;;;;;;3.83;2.35;;;2.70;99.90;;;;;;4941712;29;20035;-82
2022/12/07 07:05:55;;;;;;;3.35;2.03;;;2.70;99.90;;;;;;4941682;29;20023;-83
2022/12/07 07:08:21;;;;;;;4.55;2.40;;;2.60;99.90;;;;;;4941890;29;20099;-83
2022/12/07 07:10:46;;;;;;;3.58;2.08;;;2.70;99.90;;;;;;4958756;29;20520;-83
2022/12/07 07:13:12;;;;;;;3.42;2.17;;;2.70;99.90;;;;;;4941645;29;20122;-83
2022/12/07 07:15:38;;;;;;;4.57;2.83;;;2.70;99.90;;;;;;4941650;29;20055;-82
2022/12/07 07:18:04;;;;;;;3.78;2.58;;;2.70;99.90;;;;;;4958770;29;20078;-82
2022/12/07 07:20:30;;;;;;;4.70;2.85;;;2.60;99.90;;;;;;4941719;29;20034;-83
2022/12/07 07:22:56;;;;;;;4.30;2.88;;;2.50;99.90;;;;;;4941207;29;20424;-81
2022/12/07 07:25:24;;;;;;;4.68;2.70;;;2.50;99.90;;;;;;4956601;29;20031;-81
2022/12/07 07:27:50;;;;;;;4.55;2.65;;;2.60;99.90;;;;;;4958605;28;20070;-79
2022/12/07 07:30:16;;;;;;;4.28;2.30;;;2.60;99.90;;;;;;4958696;29;20448;-78
2022/12/07 07:32:41;;;;;;;4.63;2.40;;;2.70;99.90;;;;;;4958492;29;20038;-79
2022/12/07 07:35:08;;;;;;;4.07;2.53;;;2.80;99.90;;;;;;4945593;29;20114;-79
2022/12/07 07:37:34;;;;;;;4.10;2.60;;;2.80;99.90;;;;;;4943195;29;20114;-79
2022/12/07 07:39:59;;;;;;;4.50;2.22;;;2.80;99.90;;;;;;4937514;29;20071;-80
2022/12/07 07:42:25;;;;;;;3.70;2.22;;;2.70;99.90;;;;;;4947014;29;20424;-79
2022/12/07 07:44:50;;;;;;;3.30;2.25;;;2.70;99.90;;;;;;4960781;29;20027;-79
2022/12/07 07:47:16;;;;;;;4.65;2.50;;;2.70;99.90;;;;;;4944096;29;20030;-79
2022/12/07 07:49:42;;;;;;;4.53;2.47;;;2.70;99.90;;;;;;4961917;29;20063;-79
2022/12/07 07:52:10;;;;;;;3.42;2.53;;;2.60;99.90;;;;;;4961707;29;20031;-82
2022/12/07 07:54:36;;;;;;;3.78;2.58;;;2.70;99.90;;;;;;4961918;29;20508;-79
2022/12/07 07:57:02;;;;;;;4.07;2.55;;;2.70;99.90;;;;;;4961340;29;20131;-78
2022/12/07 07:59:27;;;;;;;4.70;2.95;;;2.70;99.90;;;;;;4961592;29;20035;-78
2022/12/07 08:01:53;;;;;;;3.20;2.28;;;2.80;99.90;;;;;;4944175;29;20028;-78
2022/12/07 08:04:19;;;;;;;5.18;2.88;;;2.80;99.90;;;;;;4961509;29;20159;-79
2022/12/07 08:06:44;;;;;;;4.32;2.50;;;2.80;99.90;;;;;;4944540;29;20075;-78
2022/12/07 08:09:10;;;;;;;4.18;2.42;;;2.80;99.90;;;;;;4961565;29;20027;-78
2022/12/07 08:11:37;;;;;;;3.42;2.60;;;2.80;99.90;;;;;;4961261;29;20029;-78
2022/12/07 08:14:02;;;;;;;4.45;2.65;;;2.90;99.90;;;;;;4961561;29;20087;-79
2022/12/07 08:16:28;;;;;;;4.53;2.70;;;2.90;99.90;;;;;;4944427;29;20031;-79
2022/12/07 08:18:54;;;;;;;4.00;2.53;;;2.90;99.90;;;;;;4961493;29;20114;-79
2022/12/07 08:21:20;;;;;;;3.15;2.28;;;2.90;99.90;;;;;;4961395;29;20058;-78
2022/12/07 08:23:46;;;;;;;6.40;2.63;;;2.90;99.90;;;;;;4961713;29;20028;-79
2022/12/07 08:26:14;;;;;;;3.95;2.33;;;2.90;99.90;;;;;;4943664;28;20024;-79
2022/12/07 08:28:41;;;;;;;3.05;1.70;;;3.00;99.90;;;;;;4936507;29;20039;-79
2022/12/07 08:31:11;;;;;;;3.58;2.00;;;2.90;99.90;;;;;;4960835;29;20027;-80
2022/12/07 08:33:38;;;;;;;3.22;2.10;;;2.90;99.90;;;;;;4960763;29;20031;-82
2022/12/07 08:36:06;;;;;;;2.78;1.95;;;2.90;99.90;;;;;;4960693;29;20031;-81
2022/12/07 08:38:33;;;;;;;3.63;1.95;;;2.90;99.90;;;;;;4930731;29;20032;-81
2022/12/07 08:40:59;;;;;;;3.33;2.05;;;2.80;99.90;;;;;;4941715;29;20496;-78
2022/12/07 08:43:25;;;;;;;2.50;1.70;;;2.90;99.90;;;;;;4955173;29;20126;-79
2022/12/07 08:46:22;;;;;;;2.67;1.95;;;3.00;99.90;;;;;;4960079;29;20023;-80
2022/12/07 08:49:01;;;;;;;3.15;1.92;;;3.10;99.90;;;;;;4960594;29;20543;-79
2022/12/07 08:51:27;;;;;;;3.53;2.75;;;3.10;99.90;;;;;;4960311;29;20096;-77
2022/12/07 08:53:54;;;;;;;3.67;2.42;;;3.00;99.90;;;;;;4940271;29;20031;-73
2022/12/07 08:56:21;;;;;;;3.80;2.40;;;2.90;99.90;;;;;;4959692;29;20418;-74
2022/12/07 08:58:48;;;;;;;4.15;2.67;;;2.90;99.90;;;;;;4954252;28;20518;-75
2022/12/07 09:01:13;;;;;;;4.40;2.85;;;3.00;99.90;;;;;;4960060;29;20055;-74
2022/12/07 09:03:39;;;;;;;3.53;2.53;;;3.00;99.90;;;;;;4940515;29;20050;-74
2022/12/07 09:06:05;;;;;;;3.03;2.13;;;2.80;99.90;;;;;;4943337;29;20038;-74
2022/12/07 09:08:36;;;;;;;4.32;2.80;;;2.90;99.90;;;;;;4954719;29;20046;-74
2022/12/07 09:11:02;;;;;;;3.85;2.85;;;2.90;99.90;;;;;;4941979;29;20095;-75
2022/12/07 09:13:28;;;;;;;4.93;3.10;;;2.90;99.90;;;;;;4958951;29;20207;-74
2022/12/07 09:15:53;;;;;;;4.38;2.75;;;2.90;99.90;;;;;;4939066;29;20086;-74
2022/12/07 09:18:19;;;;;;;4.80;3.10;;;2.90;99.90;;;;;;4953907;29;20158;-74
2022/12/07 09:20:45;;;;;;;5.30;3.28;;;2.80;99.90;;;;;;4957764;29;20031;-74
2022/12/07 09:23:10;;;;;;;5.72;3.58;;;2.90;99.90;;;;;;4942592;29;20027;-75
2022/12/07 09:25:36;;;;;;;5.38;3.45;;;3.00;99.90;;;;;;4959435;29;20102;-74
2022/12/07 09:28:02;;;;;;;4.68;3.50;;;3.00;99.90;;;;;;4951789;28;20044;-74
2022/12/07 09:30:28;;;;;;;5.70;3.75;;;3.00;99.90;;;;;;4937329;29;20035;-73
2022/12/07 09:32:58;;;;;;;4.57;3.35;;;3.00;99.90;;;;;;4960054;29;20063;-73
2022/12/07 09:35:24;;;;;;;4.35;2.78;;;3.00;99.90;;;;;;4959392;29;20032;-74
2022/12/07 09:37:50;;;;;;;5.70;3.05;;;3.00;99.90;;;;;;4958764;29;20030;-73
2022/12/07 09:40:19;;;;;;;3.42;2.28;;;3.00;99.90;;;;;;4956914;29;20046;-76
2022/12/07 09:42:49;;;;;;;3.60;2.75;;;3.00;99.90;;;;;;4932116;29;20128;-76
2022/12/07 09:45:19;;;;;;;4.60;3.03;;;3.00;99.90;;;;;;4950934;29;20158;-76
2022/12/07 09:47:45;;;;;;;3.75;2.60;;;3.10;99.90;;;;;;4960288;29;20480;-77
2022/12/07 09:50:17;;;;;;;3.13;2.20;;;3.10;99.90;;;;;;4943920;29;20028;-78
2022/12/07 09:52:45;;;;;;;2.72;1.95;;;3.20;99.90;;;;;;4940507;29;20031;-75
2022/12/07 09:55:24;;;;;;;3.17;2.03;;;3.30;99.90;;;;;;4926914;29;20024;-74
2022/12/07 09:57:53;;;;;;;3.78;2.05;;;3.30;99.90;;;;;;4922666;29;20027;-73
2022/12/07 10:00:22;;;;;;;3.50;2.00;;;3.40;99.90;;;;;;4928800;29;20060;-74
2022/12/07 10:03:00;;;;;;;3.42;1.90;;;3.50;99.90;;;;;;4929301;29;20396;-75
2022/12/07 10:05:30;;;;;;;2.50;2.03;;;3.50;99.90;;;;;;4950399;28;20484;-75
2022/12/07 10:07:56;;;;;;;3.05;1.95;;;3.50;99.90;;;;;;4942101;29;20055;-76
2022/12/07 10:10:29;;;;;;;3.15;2.13;;;3.40;99.90;;;;;;4941131;29;20031;-77
2022/12/07 10:12:59;;;;;;;3.40;2.05;;;3.50;99.90;;;;;;4939653;29;20605;-74
2022/12/07 10:15:44;;;;;;;3.45;2.20;;;3.60;99.90;;;;;;4939814;29;20042;-77
2022/12/07 10:18:29;;;;;;;3.20;2.20;;;3.70;99.90;;;;;;4941783;29;20079;-73
2022/12/07 10:21:25;;;;;;;4.13;2.67;;;3.70;99.90;;;;;;4941610;29;20042;-75
2022/12/07 10:24:14;;;;;;;4.45;2.60;;;3.80;99.90;;;;;;4959143;29;20020;-72
2022/12/07 10:26:52;;;;;;;3.55;2.30;;;3.80;99.90;;;;;;4958768;29;20055;-74
2022/12/07 10:29:28;;;;;;;3.85;2.58;;;3.70;99.90;;;;;;4954410;29;20397;-77
2022/12/07 10:32:41;;;;;;;3.28;2.55;;;3.70;99.90;;;;;;4938894;29;20024;-75
2022/12/07 10:35:23;;;;;;;2.53;1.85;;;3.80;99.90;;;;;;4933698;29;20121;-78
2022/12/07 10:37:50;;;;;;;3.60;2.38;;;3.80;99.90;;;;;;4935455;29;20024;-76
2022/12/07 10:40:34;;;;;;;3.08;2.22;;;3.80;99.90;;;;;;4954198;28;20412;-81
2022/12/07 10:43:16;;;;;;;3.38;2.25;;;3.80;99.90;;;;;;4941290;29;20110;-80
2022/12/07 10:45:48;;;;;;;3.22;2.05;;;3.70;99.90;;;;;;4936008;29;20039;-76
2022/12/07 10:48:39;;;;;;;3.10;2.00;;;3.70;99.90;;;;;;4957191;29;20023;-79
2022/12/07 10:51:23;;;;;;;3.83;2.70;;;3.60;99.90;;;;;;4945575;29;20023;-77
2022/12/07 10:54:22;;;;;;;2.55;1.90;;;3.60;99.90;;;;;;4956663;29;20102;-78
2022/12/07 10:56:57;;;;;;;2.88;1.83;;;3.60;99.90;;;;;;4937850;29;20031;-76
2022/12/07 10:59:41;;;;;;;2.53;2.00;;;3.70;99.90;;;;;;4958091;29;20035;-80
2022/12/07 11:02:38;;;;;;;2.90;1.95;;;3.70;99.90;;;;;;4935495;29;20078;-78
2022/12/07 11:05:38;;;;;;;2.72;1.98;;;3.80;99.90;;;;;;4940291;29;20452;-81
2022/12/07 11:08:32;;;;;;;2.78;2.00;;;3.80;99.90;;;;;;4959625;28;20027;-78
2022/12/07 11:11:06;;;;;;;3.05;2.10;;;3.90;99.90;;;;;;4962504;28;20496;-80
2022/12/07 11:13:52;;;;;;;4.65;2.55;;;3.90;99.90;;;;;;4967026;28;20038;-77
2022/12/07 11:16:36;;;;;;;3.13;2.13;;;4.00;99.90;;;;;;4966255;28;20027;-79
2022/12/07 11:19:39;;;;;;;2.65;1.80;;;4.00;99.90;;;;;;4964803;28;20059;-79
2022/12/07 11:22:32;;;;;;;2.47;1.77;;;4.10;99.90;;;;;;4962686;28;20408;-79
2022/12/07 11:25:16;;;;;;;2.58;1.73;;;4.10;99.90;;;;;;4942834;29;20034;-79
2022/12/07 11:27:45;;;;;;;2.47;1.70;;;4.20;99.90;;;;;;4962103;28;20051;-78
2022/12/07 11:30:23;;;;;;;3.00;1.73;;;4.30;99.90;;;;;;4970125;28;20031;-77
2022/12/07 11:32:57;;;;;;;3.45;1.90;;;4.30;99.90;;;;;;4961820;28;20050;-77
2022/12/07 11:35:35;;;;;;;4.07;2.40;;;4.30;99.90;;;;;;4967023;28;20058;-76
2022/12/07 11:38:23;;;;;;;4.32;2.53;;;4.20;99.90;;;;;;4963892;28;20098;-78
2022/12/07 11:40:51;;;;;;;3.50;2.38;;;4.00;99.90;;;;;;4967220;28;20300;-78
2022/12/07 11:43:34;;;;;;;3.20;2.03;;;4.00;99.90;;;;;;4968106;28;20023;-76
2022/12/07 11:46:12;;;;;;;3.90;2.38;;;3.90;99.90;;;;;;4968726;28;20543;-77
2022/12/07 11:49:07;;;;;;;2.72;2.08;;;4.00;99.90;;;;;;4965220;28;20023;-82
2022/12/07 11:51:37;;;;;;;3.65;2.50;;;4.10;99.90;;;;;;4967767;28;20051;-81
2022/12/07 11:54:12;;;;;;;2.63;1.85;;;4.00;99.90;;;;;;4937926;29;20171;-82
2022/12/07 11:56:38;;;;;;;3.30;2.33;;;4.20;99.90;;;;;;4960193;28;20049;-82
2022/12/07 11:59:04;;;;;;;3.38;2.45;;;4.30;99.90;;;;;;4970299;28;20058;-79
2022/12/07 12:01:39;;;;;;;4.25;2.70;;;4.30;99.90;;;;;;4959635;28;20019;-81
2022/12/07 12:04:04;;;;;;;3.10;2.13;;;4.40;99.90;;;;;;4949594;29;20028;-80
2022/12/07 12:06:31;;;;;;;4.18;2.65;;;4.50;99.90;;;;;;4961087;29;20024;-80
2022/12/07 12:09:05;;;;;;;3.80;2.55;;;4.60;99.90;;;;;;4940742;29;20032;-80
2022/12/07 12:12:08;;;;;;;3.10;2.20;;;4.50;99.90;;;;;;4956120;29;20075;-78
2022/12/07 12:14:58;;;;;;;3.95;2.58;;;4.60;99.90;;;;;;4960892;29;20031;-75
2022/12/07 12:17:51;;;;;;;3.92;2.55;;;4.60;99.90;;;;;;4960749;29;20035;-77
2022/12/07 12:20:30;;;;;;;4.00;2.70;;;4.60;99.90;;;;;;4952254;29;20567;-78
2022/12/07 12:23:15;;;;;;;4.93;2.85;;;4.70;99.90;;;;;;4943376;29;20034;-78
2022/12/07 12:25:45;;;;;;;4.30;3.28;;;4.70;99.90;;;;;;4960978;29;20031;-77
2022/12/07 12:28:26;;;;;;;4.75;3.30;;;4.70;99.90;;;;;;4943121;29;20044;-79
2022/12/07 12:31:30;;;;;;;5.65;3.30;;;4.70;99.90;;;;;;4961035;29;20086;-79
2022/12/07 12:34:01;;;;;;;4.90;3.17;;;4.60;99.90;;;;;;4930902;29;20039;-77
2022/12/07 12:36:44;;;;;;;4.43;3.03;;;4.70;99.90;;;;;;4943962;29;20031;-77
2022/12/07 12:39:20;;;;;;;6.47;3.10;;;4.80;99.90;;;;;;4925175;29;20079;-76
2022/12/07 12:44:14;;;;;;;5.45;3.50;;;4.90;99.90;;;;;;4960491;29;20027;-77
2022/12/07 12:46:49;;;;;;;5.15;3.10;;;5.00;99.90;;;;;;4946773;29;20031;-77
2022/12/07 12:49:34;;;;;;;4.75;3.22;;;4.90;99.90;;;;;;4927256;29;20042;-77
2022/12/07 12:52:13;;;;;;;4.13;2.97;;;4.90;99.90;;;;;;4942807;29;20558;-77
2022/12/07 12:54:56;;;;;;;5.55;3.88;;;4.90;99.90;;;;;;4929430;29;20562;-78
2022/12/07 12:57:28;;;;;;;6.03;3.58;;;4.90;99.90;;;;;;4924598;29;20386;-79
2022/12/07 12:59:53;;;;;;;5.30;3.60;;;4.90;99.90;;;;;;4943149;29;20062;-80
2022/12/07 13:02:32;;;;;;;4.80;3.22;;;4.90;99.90;;;;;;4942527;29;20861;-80
2022/12/07 13:05:12;;;;;;;5.68;3.38;;;4.90;99.90;;;;;;4960063;29;20074;-78
2022/12/07 13:07:47;;;;;;;5.30;3.05;;;4.80;99.90;;;;;;4960237;29;20484;-78
2022/12/07 13:10:32;;;;;;;4.60;3.20;;;4.80;99.90;;;;;;4943192;29;20534;-76
2022/12/07 13:13:05;;;;;;;3.75;2.97;;;4.80;99.90;;;;;;4960232;29;20058;-75
2022/12/07 13:15:51;;;;;;;4.00;3.00;;;4.80;99.90;;;;;;4943191;29;20381;-76
2022/12/07 13:18:24;;;;;;;4.90;3.35;;;4.90;99.90;;;;;;4959808;29;20047;-76
2022/12/07 13:20:52;;;;;;;5.07;3.28;;;4.90;99.90;;;;;;4942970;29;20035;-75
2022/12/07 13:23:22;;;;;;;5.35;3.85;;;4.90;99.90;;;;;;4959908;29;20497;-75
2022/12/07 13:25:58;;;;;;;5.20;3.42;;;4.90;99.90;;;;;;4960079;29;20027;-76
2022/12/07 13:28:32;;;;;;;5.80;3.65;;;4.90;99.90;;;;;;4942833;29;20051;-76
2022/12/07 13:31:03;;;;;;;;;;;4.90;99.90;;;;;;4943209;29;20031;-77
2022/12/07 13:33:29;;;;;;;5.00;3.47;;;4.90;99.90;;;;;;4942528;29;19970;-76
2022/12/07 13:35:56;;;;;;;5.70;3.42;;;4.90;99.90;;;;;;4959906;29;20027;-76
2022/12/07 13:38:32;;;;;;;5.07;3.67;;;4.90;99.90;;;;;;4929328;29;20489;-76
2022/12/07 13:41:03;;;;;;;5.20;3.85;;;4.90;99.90;;;;;;4940166;29;20051;-75
2022/12/07 13:43:29;;;;;;;5.72;4.20;;;5.00;99.90;;;;;;4938287;29;20028;-75
2022/12/07 13:45:58;;;;;;;6.20;4.30;;;5.00;99.90;;;;;;4960100;29;20039;-75
2022/12/07 13:48:42;;;;;;;8.00;5.07;;;5.10;99.90;;;;;;4959528;29;20011;-76
2022/12/07 13:51:24;;;;;;;6.97;4.22;;;5.00;99.90;;;;;;4959950;29;20035;-75
2022/12/07 13:54:01;;;;;;;7.30;4.50;;;5.00;99.90;;;;;;4942319;29;20031;-75
2022/12/07 13:56:33;;;;;;;6.40;4.13;;;5.10;99.90;;;;;;4959288;29;20039;-76
2022/12/07 13:58:59;;;;;;;6.97;4.40;;;5.10;99.90;;;;;;4959537;29;20114;-76
2022/12/07 14:01:26;;;;;;;6.47;4.47;;;5.10;99.90;;;;;;4957143;29;20117;-76
2022/12/07 14:03:52;;;;;;;7.10;4.68;;;5.10;99.90;;;;;;4940249;29;20508;-76
2022/12/07 14:06:28;;;;;;;7.32;5.28;;;5.10;99.90;;;;;;4940199;29;20023;-77
2022/12/07 14:09:26;;;;;;;7.05;4.60;;;5.10;99.90;;;;;;4940088;29;20027;-77
2022/12/07 14:11:55;;;;;;;7.25;5.20;;;5.20;99.90;;;;;;4908314;29;20083;-76
2022/12/07 14:14:26;;;;;;;8.07;5.10;;;5.20;99.90;;;;;;4922927;29;20028;-76
2022/12/07 14:17:01;;;;;;;7.50;5.05;;;5.20;99.90;;;;;;4931928;29;20026;-76
2022/12/07 14:19:52;;;;;;;6.80;4.35;;;5.20;99.90;;;;;;4941832;29;20035;-76
2022/12/07 14:22:20;;;;;;;6.70;4.40;;;5.30;99.90;;;;;;4959268;29;20035;-76